»·PEaware :: BAW542 KSFO-KELP

BAW542 :: KSFO-KELP

FLIGHT INFORMATION

Flight Status: Arrived
Operator:
British Airways
More flights by this operator :: More flights under this callsign
Pilot: Matthew D. (16794)
Aircraft: LOCKHEED L-1011 TRI-STAR
(L101)
More flights by this aircraft type
Origin: KSFO San Francisco Intl
United States
Destination: KELP El Paso Intl
United States
More flights between these airports :: More routes between these airports
Route: +SSTIK3 EBAYE AVE SPTFR SSO DOHHN HSKNS1
File this flight plan on PilotEdge
Remarks: PBN / A1B1D1S2T1 DOF / 171017 REG / N755SB EET / KZLA0025 KZAB0105 OPR / BAW RMK / TCAS SIMBRIEF
Altitude:
(Current/Filed)
37,000ft
Speed:
(Current/Filed)
466kts
Departed: 16-Oct-17 07:50 PM
Arrived: 16-Oct-17 09:58 PM
Distance/Time
Traveled:
861nm/2:08
Distance/Time
To Go:
Arrived

Flight Plot

Page will automatically refresh every two minutes.

Flight plan parsing failed; only flown route is shown


Map Options




Map Legend


Flown Route
Filed Route
Departure Airport
Arrival Airport
Navaid (VOR, NDB)
Fix

Horizontal Profiles

Position Reports

Time Latitude Longitude Heading Altitude Ground
Speed
16-Oct-17 19:29 37.617294 -122.391838 29 37ft 0kts
16-Oct-17 19:30 37.617270 -122.391854 29 40ft 0kts
16-Oct-17 19:30 37.617270 -122.391854 29 40ft 0kts
16-Oct-17 19:31 37.617270 -122.391854 29 40ft 0kts
16-Oct-17 19:32 37.617270 -122.391854 29 40ft 0kts
16-Oct-17 19:34 37.617270 -122.391854 29 40ft 0kts
16-Oct-17 19:35 37.617270 -122.391854 29 40ft 0kts
16-Oct-17 19:35 37.617270 -122.391854 29 40ft 0kts
16-Oct-17 19:36 37.617270 -122.391854 29 40ft 0kts
16-Oct-17 19:37 37.617270 -122.391854 29 40ft 0kts
16-Oct-17 19:39 37.617270 -122.391854 29 40ft 0kts
16-Oct-17 19:40 37.617270 -122.391854 29 40ft 0kts
16-Oct-17 19:41 37.617270 -122.391854 29 40ft 0kts
16-Oct-17 19:42 37.617270 -122.391854 29 40ft 0kts
16-Oct-17 19:43 37.616963 -122.391926 338 40ft 7kts
16-Oct-17 19:44 37.618083 -122.394975 331 39ft 15kts
16-Oct-17 19:45 37.619889 -122.393918 69 40ft 0kts
16-Oct-17 19:46 37.621266 -122.391682 27 40ft 28kts
16-Oct-17 19:47 37.621895 -122.387349 117 39ft 21kts
16-Oct-17 19:48 37.619042 -122.380605 122 40ft 23kts
16-Oct-17 19:49 37.613012 -122.382042 207 40ft 23kts
16-Oct-17 19:50 37.608393 -122.384606 190 40ft 12kts
16-Oct-17 19:51 37.609637 -122.384201 195 40ft 19kts
16-Oct-17 19:52 37.610573 -122.382499 81 40ft 0kts
16-Oct-17 19:53 37.610573 -122.382499 81 40ft 0kts
16-Oct-17 19:54 37.610501 -122.382001 110 40ft 10kts
16-Oct-17 19:55 37.628126 -122.368592 32 323ft 206kts
16-Oct-17 19:56 37.672892 -122.380687 285 3027ft 244kts
16-Oct-17 19:57 37.628072 -122.431605 180 6066ft 287kts
16-Oct-17 19:58 37.551062 -122.443662 201 9301ft 278kts
16-Oct-17 19:59 37.478535 -122.451176 145 10393ft 287kts
16-Oct-17 20:00 37.424922 -122.386721 136 11724ft 291kts
16-Oct-17 20:01 37.374531 -122.318997 135 13039ft 297kts
16-Oct-17 20:02 37.322201 -122.247752 133 14426ft 304kts
16-Oct-17 20:03 37.269440 -122.175445 134 15911ft 311kts
16-Oct-17 20:04 37.214035 -122.100635 134 17800ft 370kts
16-Oct-17 20:05 37.152127 -122.017169 135 19555ft 368kts
16-Oct-17 20:06 37.091279 -121.935408 135 21291ft 368kts
16-Oct-17 20:07 37.026607 -121.848272 137 23122ft 370kts
16-Oct-17 20:08 36.957480 -121.755758 137 25050ft 372kts
16-Oct-17 20:09 36.887643 -121.662698 137 26995ft 369kts
16-Oct-17 20:10 36.821795 -121.575207 138 28845ft 366kts
16-Oct-17 20:11 36.752461 -121.483339 138 30812ft 363kts
16-Oct-17 20:12 36.683861 -121.392699 138 32772ft 359kts
16-Oct-17 20:13 36.615937 -121.303213 139 34729ft 356kts
16-Oct-17 20:14 36.548419 -121.214506 139 36688ft 353kts
16-Oct-17 20:15 36.477919 -121.122306 138 37061ft 402kts
16-Oct-17 20:16 36.395942 -121.010984 134 37074ft 482kts
16-Oct-17 20:17 36.306106 -120.881940 134 37026ft 498kts
16-Oct-17 20:18 36.218899 -120.756594 134 37026ft 497kts
16-Oct-17 20:19 36.128549 -120.627811 134 37027ft 497kts
16-Oct-17 20:20 36.038978 -120.500631 134 37027ft 497kts
16-Oct-17 20:21 35.948047 -120.372007 134 37030ft 497kts
16-Oct-17 20:22 35.856747 -120.245271 137 37028ft 495kts
16-Oct-17 20:23 35.762562 -120.125421 137 37031ft 496kts
16-Oct-17 20:24 35.666917 -120.003861 135 37025ft 496kts
16-Oct-17 20:25 35.605385 -119.850647 114 37029ft 507kts
16-Oct-17 20:26 35.553161 -119.690744 114 37042ft 507kts
16-Oct-17 20:27 35.501794 -119.534579 114 37043ft 507kts
16-Oct-17 20:28 35.449186 -119.375475 114 37041ft 507kts
16-Oct-17 20:29 35.396411 -119.216700 114 37050ft 507kts
16-Oct-17 20:30 35.343222 -119.057519 115 37047ft 506kts
16-Oct-17 20:31 35.289787 -118.898449 115 37050ft 508kts
16-Oct-17 20:32 35.236576 -118.739810 115 37071ft 508kts
16-Oct-17 20:33 35.182537 -118.580566 115 37181ft 508kts
16-Oct-17 20:34 35.128571 -118.422380 115 37211ft 508kts
16-Oct-17 20:35 35.074115 -118.263576 115 37201ft 508kts
16-Oct-17 20:36 35.019462 -118.105022 115 37152ft 508kts
16-Oct-17 20:37 34.964738 -117.947063 115 37119ft 506kts
16-Oct-17 20:38 34.910529 -117.790445 115 37089ft 505kts
16-Oct-17 20:39 34.855155 -117.632125 115 37098ft 517kts
16-Oct-17 20:40 34.798897 -117.472155 115 37128ft 516kts
16-Oct-17 20:41 34.742323 -117.312125 115 37145ft 516kts
16-Oct-17 20:42 34.685584 -117.152438 115 37147ft 516kts
16-Oct-17 20:43 34.628681 -116.993130 115 37124ft 516kts
16-Oct-17 20:44 34.572305 -116.835344 115 37089ft 516kts
16-Oct-17 20:45 34.515215 -116.676723 115 37089ft 516kts
16-Oct-17 20:46 34.457789 -116.518287 115 37108ft 516kts
16-Oct-17 20:47 34.400242 -116.360298 115 37138ft 516kts
16-Oct-17 20:48 34.342297 -116.201990 115 37139ft 516kts
16-Oct-17 20:49 34.283977 -116.043437 115 37140ft 516kts
16-Oct-17 20:50 34.225729 -115.885826 116 37138ft 516kts
16-Oct-17 20:51 34.167590 -115.728382 116 37136ft 516kts
16-Oct-17 20:52 34.108772 -115.570769 116 37137ft 516kts
16-Oct-17 20:53 34.049926 -115.413850 116 37105ft 516kts
16-Oct-17 20:54 33.990600 -115.256405 116 36987ft 515kts
16-Oct-17 20:55 33.931145 -115.099392 116 36965ft 518kts
16-Oct-17 20:56 33.871110 -114.941583 116 36966ft 522kts
16-Oct-17 20:57 33.811172 -114.783878 116 36961ft 522kts
16-Oct-17 20:58 33.750616 -114.626125 116 36962ft 522kts
16-Oct-17 20:59 33.689770 -114.468432 116 36963ft 521kts
16-Oct-17 21:00 33.628634 -114.310731 116 36963ft 522kts
16-Oct-17 21:01 33.567293 -114.153254 116 36965ft 521kts
16-Oct-17 21:02 33.505829 -113.996185 116 36967ft 522kts
16-Oct-17 21:03 33.444659 -113.839995 117 36961ft 521kts
16-Oct-17 21:04 33.386513 -113.682260 108 36963ft 523kts
16-Oct-17 21:05 33.348080 -113.514614 106 36971ft 524kts
16-Oct-17 21:06 33.308881 -113.347505 106 36973ft 524kts
16-Oct-17 21:07 33.269404 -113.180351 106 36991ft 524kts
16-Oct-17 21:08 33.229684 -113.013268 106 37000ft 524kts
16-Oct-17 21:09 33.189938 -112.846430 106 36996ft 527kts
16-Oct-17 21:10 33.149556 -112.678125 107 36999ft 528kts
16-Oct-17 21:11 33.108877 -112.510304 107 37000ft 528kts
16-Oct-17 21:12 33.068072 -112.343051 107 36995ft 528kts
16-Oct-17 21:13 33.026887 -112.175318 107 36999ft 527kts
16-Oct-17 21:14 32.985541 -112.007980 106 37006ft 527kts
16-Oct-17 21:15 32.944500 -111.842220 107 37001ft 528kts
16-Oct-17 21:16 32.903166 -111.676415 107 37026ft 528kts
16-Oct-17 21:17 32.861135 -111.509463 107 37038ft 528kts
16-Oct-17 21:18 32.818853 -111.342561 107 37060ft 528kts
16-Oct-17 21:19 32.776671 -111.177085 107 37070ft 528kts
16-Oct-17 21:20 32.733902 -111.010362 107 37072ft 527kts
16-Oct-17 21:21 32.691413 -110.844964 107 37039ft 527kts
16-Oct-17 21:22 32.648398 -110.678698 107 37063ft 527kts
16-Oct-17 21:23 32.605060 -110.512750 107 37072ft 527kts
16-Oct-17 21:24 32.561670 -110.347593 107 37081ft 527kts
16-Oct-17 21:25 32.517865 -110.181857 107 37142ft 527kts
16-Oct-17 21:26 32.473949 -110.016662 107 37150ft 527kts
16-Oct-17 21:27 32.435033 -109.870856 107 37143ft 527kts
16-Oct-17 21:28 32.391346 -109.707358 108 37144ft 527kts
16-Oct-17 21:29 32.346750 -109.542407 108 37145ft 527kts
16-Oct-17 21:30 32.301958 -109.377684 108 37150ft 527kts
16-Oct-17 21:31 32.256271 -109.213562 108 37164ft 527kts
16-Oct-17 21:32 32.211856 -109.048596 107 37184ft 528kts
16-Oct-17 21:33 32.167822 -108.884754 107 36391ft 526kts
16-Oct-17 21:34 32.123700 -108.720473 107 35432ft 528kts
16-Oct-17 21:35 32.078752 -108.555580 107 34244ft 530kts
16-Oct-17 21:36 32.033596 -108.390556 107 33288ft 532kts
16-Oct-17 21:37 31.987842 -108.224383 107 32842ft 534kts
16-Oct-17 21:38 31.941909 -108.058498 108 32678ft 535kts
16-Oct-17 21:39 31.896684 -107.895922 109 30779ft 505kts
16-Oct-17 21:40 31.854055 -107.744452 111 27923ft 475kts
16-Oct-17 21:41 31.837792 -107.597967 86 24322ft 417kts
16-Oct-17 21:42 31.840794 -107.475136 92 20384ft 348kts
16-Oct-17 21:43 31.839188 -107.359535 92 16722ft 355kts
16-Oct-17 21:43 31.837665 -107.262486 91 14118ft 360kts
16-Oct-17 21:45 31.835708 -107.141551 91 13005ft 271kts
16-Oct-17 21:45 31.834501 -107.072016 91 13026ft 251kts
16-Oct-17 21:46 31.826840 -106.990677 99 12286ft 250kts
16-Oct-17 21:48 31.813817 -106.896797 100 11115ft 248kts
16-Oct-17 21:49 31.809145 -106.817048 79 10102ft 247kts
16-Oct-17 21:50 31.821348 -106.751929 78 9105ft 243kts
16-Oct-17 21:51 31.835999 -106.674787 78 9000ft 242kts
16-Oct-17 21:52 31.850708 -106.597490 77 9000ft 242kts
16-Oct-17 21:53 31.865440 -106.520166 77 8997ft 242kts
16-Oct-17 21:54 31.880146 -106.442797 77 9000ft 242kts
16-Oct-17 21:55 31.894839 -106.365449 77 8999ft 243kts
16-Oct-17 21:56 31.909689 -106.287235 77 8245ft 251kts
16-Oct-17 21:57 31.884829 -106.219122 137 7000ft 237kts
16-Oct-17 21:58 31.835707 -106.170804 160 7063ft 212kts
16-Oct-17 21:59 31.803895 -106.202687 253 7639ft 171kts
16-Oct-17 22:00 31.798300 -106.259709 269 7109ft 173kts
16-Oct-17 22:01 31.799178 -106.315368 270 5317ft 164kts
16-Oct-17 22:02 31.801069 -106.367248 273 3976ft 149kts
16-Oct-17 22:03 31.801989 -106.387347 272 3939ft 0kts
16-Oct-17 22:04 31.800365 -106.387967 182 3940ft 15kts
16-Oct-17 22:05 31.796433 -106.388262 181 3941ft 0kts

Navigation Log

Ident Type
Flight plan parsing failed, navigation log unavailable